Time;durP1;ratioP1;P1;durP2;ratioP2;P2;SDS_P1;SDS_P2;PMS_P1;PMS_P2;Temp;Humidity;BMP_temperature;BMP_pressure;BME280_temperature;BME280_humidity;BME280_pressure;Samples;Min_cycle;Max_cycle;Signal;HPM_P1;HPM_P2
2022/05/17 00:00:49;;;;;;;1.05;0.80;;;25.10;49.30;;;;;;5019894;28;20029;-63
2022/05/17 00:03:15;;;;;;;1.83;0.80;;;25.10;49.40;;;;;;5020262;28;20091;-61
2022/05/17 00:05:42;;;;;;;1.95;1.17;;;25.10;49.30;;;;;;5017079;28;20044;-63
2022/05/17 00:08:08;;;;;;;1.80;0.90;;;25.10;49.30;;;;;;5021609;28;20045;-63
2022/05/17 00:10:36;;;;;;;0.88;0.70;;;25.10;49.30;;;;;;5019879;28;20095;-60
2022/05/17 00:13:03;;;;;;;1.17;0.85;;;25.10;49.30;;;;;;5020044;28;20064;-60
2022/05/17 00:15:29;;;;;;;1.50;1.00;;;25.10;49.30;;;;;;5019675;28;20509;-61
2022/05/17 00:17:55;;;;;;;0.80;0.80;;;25.10;49.40;;;;;;5020746;28;20136;-62
2022/05/17 00:20:22;;;;;;;1.60;0.90;;;25.10;49.30;;;;;;5018118;28;20427;-62
2022/05/17 00:22:48;;;;;;;1.10;0.82;;;25.10;49.30;;;;;;5018695;28;20040;-62
2022/05/17 00:25:16;;;;;;;1.35;0.90;;;25.10;49.30;;;;;;5016754;28;20338;-62
2022/05/17 00:27:41;;;;;;;1.48;0.80;;;25.10;49.30;;;;;;5019079;28;20064;-62
2022/05/17 00:30:08;;;;;;;1.45;0.80;;;25.10;49.30;;;;;;5019681;28;20446;-62
2022/05/17 00:32:34;;;;;;;2.60;1.30;;;25.00;49.20;;;;;;5017520;28;20028;-62
2022/05/17 00:35:00;;;;;;;1.55;0.90;;;25.10;49.80;;;;;;5018341;28;20525;-62
2022/05/17 00:37:26;;;;;;;0.95;0.80;;;25.10;49.30;;;;;;5020871;28;20497;-61
2022/05/17 00:39:51;;;;;;;1.02;0.80;;;25.00;49.80;;;;;;5018379;28;20049;-63
2022/05/17 00:42:17;;;;;;;1.67;0.90;;;25.00;49.20;;;;;;5021215;28;20030;-61
2022/05/17 00:44:43;;;;;;;1.52;0.90;;;25.00;49.20;;;;;;5019494;28;20029;-61
2022/05/17 00:47:44;;;;;;;1.05;0.80;;;25.00;49.20;;;;;;5018952;28;20035;-60
2022/05/17 00:50:10;;;;;;;1.25;0.90;;;25.00;49.20;;;;;;5018772;28;20128;-63
2022/05/17 00:52:39;;;;;;;1.15;0.70;;;25.00;49.20;;;;;;5017943;28;20026;-63
2022/05/17 00:55:23;;;;;;;1.20;0.90;;;25.00;49.20;;;;;;5018122;28;20025;-61
2022/05/17 00:58:19;;;;;;;1.20;0.70;;;25.00;49.20;;;;;;5019858;28;20641;-65
2022/05/17 01:00:50;;;;;;;1.00;0.77;;;25.00;49.30;;;;;;5005148;28;20095;-62
2022/05/17 01:03:19;;;;;;;1.35;0.82;;;25.00;49.20;;;;;;5017372;28;20040;-61
2022/05/17 01:05:47;;;;;;;;;;;24.90;49.20;;;;;;5019117;28;20029;-62
2022/05/17 01:08:16;;;;;;;1.58;0.90;;;24.90;49.20;;;;;;5017526;28;20015;-63
2022/05/17 01:10:41;;;;;;;0.90;0.70;;;25.00;49.20;;;;;;5019268;28;20044;-61
2022/05/17 01:15:53;;;;;;;1.42;0.98;;;25.00;49.20;;;;;;5017506;28;20150;-62
2022/05/17 01:18:18;;;;;;;1.15;0.80;;;24.90;49.20;;;;;;5016522;28;20044;-62
2022/05/17 01:20:45;;;;;;;1.48;0.90;;;24.90;49.10;;;;;;5015794;28;20481;-62
2022/05/17 01:23:11;;;;;;;1.10;0.80;;;24.90;49.20;;;;;;5019331;28;20645;-60
2022/05/17 01:25:37;;;;;;;1.20;0.80;;;24.90;49.20;;;;;;5017297;28;20029;-64
2022/05/17 01:28:16;;;;;;;0.98;0.77;;;24.90;49.20;;;;;;5016763;28;20437;-62
2022/05/17 01:30:42;;;;;;;1.00;0.80;;;24.90;49.20;;;;;;5016304;28;20525;-63
2022/05/17 01:33:19;;;;;;;1.58;0.90;;;24.90;49.20;;;;;;5017386;28;20041;-63
2022/05/17 01:35:45;;;;;;;0.95;0.75;;;24.90;49.20;;;;;;5014030;28;20037;-64
2022/05/17 01:38:11;;;;;;;1.20;0.80;;;24.90;49.10;;;;;;5017505;28;20402;-63
2022/05/17 01:40:38;;;;;;;1.05;0.80;;;24.90;49.10;;;;;;5015343;28;20330;-63
2022/05/17 01:43:04;;;;;;;0.77;0.70;;;24.90;49.10;;;;;;5016948;28;20039;-64
2022/05/17 01:45:30;;;;;;;0.90;0.70;;;24.90;49.10;;;;;;5017194;28;20033;-63
2022/05/17 01:47:56;;;;;;;2.45;0.90;;;24.90;49.10;;;;;;5015929;28;20025;-62
2022/05/17 01:50:21;;;;;;;1.25;1.00;;;24.90;49.10;;;;;;5014186;28;20056;-65
2022/05/17 01:52:47;;;;;;;1.38;0.80;;;24.90;49.10;;;;;;5016422;28;20552;-61
2022/05/17 01:55:13;;;;;;;1.02;0.80;;;24.80;49.10;;;;;;5015311;28;20030;-61
2022/05/17 01:57:39;;;;;;;1.20;0.82;;;24.80;49.10;;;;;;5015145;28;20505;-63
2022/05/17 02:00:09;;;;;;;1.02;0.80;;;24.80;49.10;;;;;;5016397;28;20064;-63
2022/05/17 02:02:34;;;;;;;;;;;24.80;49.10;;;;;;5017406;28;20036;-64
2022/05/17 02:05:00;;;;;;;1.48;0.90;;;24.80;49.10;;;;;;5016503;28;19912;-64
2022/05/17 02:07:25;;;;;;;0.68;0.60;;;24.80;49.10;;;;;;5020749;28;20028;-62
2022/05/17 02:09:51;;;;;;;1.63;0.90;;;24.80;49.10;;;;;;5018585;28;20276;-63
2022/05/17 02:12:17;;;;;;;1.02;0.70;;;24.80;49.10;;;;;;5021497;28;20137;-63
2022/05/17 02:14:43;;;;;;;1.00;0.70;;;24.80;49.10;;;;;;5021208;28;20034;-63
2022/05/17 02:17:09;;;;;;;0.93;0.75;;;24.80;49.10;;;;;;5019801;28;20111;-63
2022/05/17 02:19:35;;;;;;;1.40;0.70;;;24.80;49.10;;;;;;5018446;28;20487;-64
2022/05/17 02:22:00;;;;;;;0.68;0.63;;;24.80;49.10;;;;;;5018018;28;20038;-61
2022/05/17 02:24:27;;;;;;;1.25;0.73;;;24.80;49.10;;;;;;5018868;28;20037;-63
2022/05/17 02:26:54;;;;;;;0.80;0.68;;;24.80;49.10;;;;;;5021017;28;20040;-65
2022/05/17 02:29:19;;;;;;;0.85;0.70;;;24.80;49.10;;;;;;5018400;28;20037;-63
2022/05/17 02:31:45;;;;;;;1.50;0.90;;;24.80;49.10;;;;;;5019145;28;20068;-65
2022/05/17 02:34:11;;;;;;;0.90;0.73;;;24.80;49.10;;;;;;5018907;28;20044;-63
2022/05/17 02:36:36;;;;;;;1.40;0.90;;;24.80;49.30;;;;;;5019952;28;20048;-63
2022/05/17 02:39:02;;;;;;;0.82;0.70;;;24.80;49.10;;;;;;5020088;28;20036;-61
2022/05/17 02:41:28;;;;;;;1.30;0.90;;;24.80;49.10;;;;;;5020453;28;20083;-65
2022/05/17 02:43:53;;;;;;;0.73;0.73;;;24.80;49.10;;;;;;5020035;28;20048;-65
2022/05/17 02:46:19;;;;;;;0.90;0.80;;;24.70;49.00;;;;;;5022648;28;21752;-62
2022/05/17 02:48:45;;;;;;;1.40;1.00;;;24.80;49.10;;;;;;5026940;28;20064;-63
2022/05/17 02:51:13;;;;;;;1.38;0.70;;;24.80;49.10;;;;;;5018422;28;20030;-60
2022/05/17 02:53:39;;;;;;;1.17;0.80;;;24.80;49.10;;;;;;5019693;28;20029;-62
2022/05/17 02:56:06;;;;;;;1.13;0.80;;;24.70;49.00;;;;;;5019210;28;20041;-63
2022/05/17 02:58:31;;;;;;;1.17;0.80;;;24.70;49.00;;;;;;5020660;28;20462;-63
2022/05/17 03:00:57;;;;;;;1.30;0.80;;;24.70;49.00;;;;;;5016757;28;20066;-63
2022/05/17 03:03:23;;;;;;;1.20;0.77;;;24.70;49.00;;;;;;5018576;28;20057;-64
2022/05/17 03:05:48;;;;;;;1.48;0.82;;;24.70;49.00;;;;;;5019939;28;20036;-63
2022/05/17 03:08:15;;;;;;;1.20;0.80;;;24.70;49.00;;;;;;5019021;28;20483;-63
2022/05/17 03:10:41;;;;;;;0.80;0.70;;;24.70;49.10;;;;;;5020124;28;20112;-63
2022/05/17 03:13:10;;;;;;;0.98;0.70;;;24.70;49.00;;;;;;5020172;28;20251;-63
2022/05/17 03:15:36;;;;;;;0.80;0.80;;;24.70;49.10;;;;;;5017686;28;20045;-62
2022/05/17 03:18:01;;;;;;;1.20;0.80;;;24.70;49.00;;;;;;5019236;28;20412;-63
2022/05/17 03:20:27;;;;;;;1.05;0.80;;;24.70;49.00;;;;;;5015870;28;20033;-65
2022/05/17 03:22:53;;;;;;;1.27;0.70;;;24.70;49.00;;;;;;5016625;28;20025;-61
2022/05/17 03:25:18;;;;;;;1.27;0.80;;;24.70;49.00;;;;;;5018171;28;20174;-62
2022/05/17 03:27:44;;;;;;;0.80;0.65;;;24.70;49.00;;;;;;5016740;28;20036;-64
2022/05/17 03:30:10;;;;;;;0.70;0.70;;;24.60;49.00;;;;;;5017617;28;20490;-63
2022/05/17 03:32:36;;;;;;;1.10;0.73;;;24.60;49.00;;;;;;5016401;28;20848;-64
2022/05/17 03:35:02;;;;;;;1.00;0.68;;;24.60;49.00;;;;;;5014765;28;20048;-63
2022/05/17 03:37:27;;;;;;;0.85;0.77;;;24.60;49.10;;;;;;5019551;28;20606;-59
2022/05/17 03:39:53;;;;;;;1.10;0.80;;;24.60;49.00;;;;;;5018269;28;20501;-60
2022/05/17 03:42:19;;;;;;;1.08;0.80;;;24.60;49.00;;;;;;5021659;28;20033;-62
2022/05/17 03:44:45;;;;;;;1.00;0.70;;;24.60;49.10;;;;;;5018916;28;20059;-62
2022/05/17 03:47:11;;;;;;;0.90;0.70;;;24.60;49.00;;;;;;5017812;28;20783;-61
2022/05/17 03:49:38;;;;;;;1.17;0.70;;;24.60;49.00;;;;;;5017751;28;20533;-60
2022/05/17 03:52:05;;;;;;;0.98;0.70;;;24.60;49.10;;;;;;5019648;28;20373;-61
2022/05/17 03:54:31;;;;;;;0.70;0.60;;;24.60;49.10;;;;;;5019272;28;21264;-62
2022/05/17 03:56:56;;;;;;;0.80;0.70;;;24.60;49.00;;;;;;5017789;28;20385;-59
2022/05/17 03:59:22;;;;;;;0.98;0.70;;;24.60;49.10;;;;;;5018149;28;20025;-61
2022/05/17 04:01:48;;;;;;;1.08;0.70;;;24.60;49.10;;;;;;5017168;28;20133;-62
2022/05/17 04:04:14;;;;;;;0.60;0.60;;;24.60;49.20;;;;;;5017838;28;20029;-60
2022/05/17 04:06:40;;;;;;;0.70;0.60;;;24.60;49.20;;;;;;5018145;28;20033;-61
2022/05/17 04:09:06;;;;;;;0.52;0.52;;;24.50;49.20;;;;;;5017130;28;20171;-62
2022/05/17 04:11:35;;;;;;;0.70;0.70;;;24.50;49.20;;;;;;5016605;28;20025;-61
2022/05/17 04:14:01;;;;;;;1.30;0.80;;;24.50;49.20;;;;;;5020468;28;20037;-61
2022/05/17 04:16:34;;;;;;;0.77;0.70;;;24.50;49.20;;;;;;5018758;28;20048;-61
2022/05/17 04:19:00;;;;;;;0.80;0.70;;;24.50;49.20;;;;;;5018206;28;20033;-63
2022/05/17 04:21:26;;;;;;;0.80;0.60;;;24.50;49.20;;;;;;5016336;28;20028;-59
2022/05/17 04:23:52;;;;;;;0.98;0.60;;;24.50;49.30;;;;;;5017528;28;20041;-62
2022/05/17 04:26:18;;;;;;;0.73;0.70;;;24.50;49.20;;;;;;5017422;28;20044;-61
2022/05/17 04:28:44;;;;;;;0.70;0.70;;;24.50;49.20;;;;;;5017396;28;20047;-60
2022/05/17 04:31:10;;;;;;;0.70;0.65;;;24.50;49.20;;;;;;5018031;28;20484;-62
2022/05/17 04:33:36;;;;;;;0.50;0.50;;;24.50;49.20;;;;;;5019704;28;20131;-61
2022/05/17 04:36:02;;;;;;;0.65;0.65;;;24.50;49.20;;;;;;5017805;28;20044;-62
2022/05/17 04:38:28;;;;;;;0.70;0.68;;;24.50;49.20;;;;;;5021338;28;20128;-60
2022/05/17 04:40:54;;;;;;;0.73;0.73;;;24.50;49.20;;;;;;5019607;28;20174;-60
2022/05/17 04:43:19;;;;;;;0.82;0.70;;;24.50;49.20;;;;;;5020446;28;20095;-62
2022/05/17 04:45:45;;;;;;;0.73;0.65;;;24.50;49.20;;;;;;5015502;28;20029;-62
2022/05/17 04:48:11;;;;;;;0.98;0.70;;;24.50;49.20;;;;;;5019760;28;20033;-60
2022/05/17 04:50:38;;;;;;;0.47;0.47;;;24.50;49.20;;;;;;5017309;28;20707;-61
2022/05/17 04:53:04;;;;;;;0.80;0.70;;;24.40;49.10;;;;;;5015601;28;20095;-61
2022/05/17 04:55:30;;;;;;;1.08;0.70;;;24.40;49.10;;;;;;5014239;28;20033;-61
2022/05/17 04:57:56;;;;;;;0.65;0.55;;;24.40;49.10;;;;;;5019583;28;20025;-61
2022/05/17 05:00:24;;;;;;;0.77;0.70;;;24.40;49.10;;;;;;5015730;28;20451;-62
2022/05/17 05:02:50;;;;;;;1.00;0.80;;;24.40;49.10;;;;;;5020839;28;20351;-59
2022/05/17 05:05:17;;;;;;;0.80;0.70;;;24.40;49.10;;;;;;5015969;28;20045;-60
2022/05/17 05:07:43;;;;;;;0.88;0.70;;;24.40;49.10;;;;;;5022392;28;20025;-59
2022/05/17 05:10:09;;;;;;;0.60;0.60;;;24.40;49.10;;;;;;5020521;28;20021;-61
2022/05/17 05:12:35;;;;;;;0.98;0.63;;;24.40;49.00;;;;;;5022622;28;20091;-62
2022/05/17 05:15:02;;;;;;;1.13;0.80;;;24.40;49.10;;;;;;5018517;28;20061;-61
2022/05/17 05:17:32;;;;;;;0.73;0.60;;;24.40;49.00;;;;;;5017223;28;20033;-60
2022/05/17 05:19:58;;;;;;;1.25;0.90;;;24.40;49.10;;;;;;5016947;28;20521;-61
2022/05/17 05:22:24;;;;;;;0.80;0.70;;;24.40;49.10;;;;;;5019001;28;20080;-58
2022/05/17 05:24:49;;;;;;;0.60;0.60;;;24.40;49.10;;;;;;5016677;28;20033;-60
2022/05/17 05:27:15;;;;;;;0.73;0.70;;;24.40;49.00;;;;;;5018046;28;20033;-60
2022/05/17 05:29:40;;;;;;;2.83;1.27;;;24.40;49.10;;;;;;5015114;28;20033;-60
2022/05/17 05:32:06;;;;;;;1.02;0.77;;;24.40;49.10;;;;;;5015837;28;20042;-61
2022/05/17 05:34:32;;;;;;;1.33;0.80;;;24.40;49.30;;;;;;5017650;28;20041;-61
2022/05/17 05:36:58;;;;;;;1.25;0.90;;;24.40;49.20;;;;;;5018528;28;20505;-60
2022/05/17 05:39:24;;;;;;;1.30;0.80;;;24.40;49.00;;;;;;5018271;28;20048;-61
2022/05/17 05:41:49;;;;;;;1.35;0.80;;;24.50;49.00;;;;;;5019285;28;20073;-61
2022/05/17 05:44:15;;;;;;;1.40;0.90;;;24.50;48.90;;;;;;5019652;28;20032;-60
2022/05/17 05:46:41;;;;;;;1.52;0.80;;;24.50;48.90;;;;;;5020424;28;20123;-60
2022/05/17 05:49:06;;;;;;;1.10;0.80;;;24.50;48.80;;;;;;5015653;28;20121;-61
2022/05/17 05:51:32;;;;;;;1.45;0.85;;;24.50;48.80;;;;;;5017761;28;20478;-62
2022/05/17 05:53:58;;;;;;;0.90;0.80;;;24.50;48.80;;;;;;5017832;28;20044;-60
2022/05/17 05:56:24;;;;;;;1.42;0.90;;;24.60;48.80;;;;;;5013050;28;20022;-60
2022/05/17 05:58:49;;;;;;;1.30;0.85;;;24.60;48.70;;;;;;5019175;28;20037;-59
2022/05/17 06:01:15;;;;;;;1.25;0.75;;;24.60;48.60;;;;;;5018740;28;20057;-60
2022/05/17 06:03:41;;;;;;;1.67;0.80;;;24.70;48.60;;;;;;5016536;28;20185;-60
2022/05/17 06:06:08;;;;;;;1.00;0.80;;;24.70;48.50;;;;;;5016325;28;20034;-60
2022/05/17 06:08:34;;;;;;;1.35;0.90;;;24.80;48.50;;;;;;5020084;28;20113;-58
2022/05/17 06:11:01;;;;;;;1.33;0.95;;;24.70;48.40;;;;;;5019777;28;20474;-61
2022/05/17 06:13:27;;;;;;;1.60;0.98;;;24.80;48.40;;;;;;5018721;28;20037;-61
2022/05/17 06:15:53;;;;;;;1.00;0.82;;;24.80;48.30;;;;;;5019838;28;20650;-59
2022/05/17 06:18:20;;;;;;;1.75;1.00;;;24.80;48.40;;;;;;5018713;28;20040;-60
2022/05/17 06:20:53;;;;;;;1.13;0.90;;;24.80;48.30;;;;;;5017217;28;20291;-60
2022/05/17 06:23:20;;;;;;;1.08;0.77;;;24.90;48.30;;;;;;5019383;28;20030;-61
2022/05/17 06:25:45;;;;;;;1.50;0.93;;;24.90;48.20;;;;;;5018587;28;20430;-59
2022/05/17 06:28:11;;;;;;;2.05;1.00;;;24.90;48.20;;;;;;5017892;28;20033;-59
2022/05/17 06:30:37;;;;;;;1.40;0.82;;;24.90;48.20;;;;;;5017434;28;20124;-60
2022/05/17 06:33:07;;;;;;;1.25;0.98;;;25.00;48.20;;;;;;5019569;28;20121;-58
2022/05/17 06:35:32;;;;;;;1.17;0.90;;;25.00;48.20;;;;;;5016618;28;20049;-60
2022/05/17 06:37:58;;;;;;;1.98;0.93;;;25.00;48.20;;;;;;5018443;28;20116;-60
2022/05/17 06:40:23;;;;;;;1.23;0.90;;;25.00;48.10;;;;;;5017135;28;20025;-60
2022/05/17 06:42:49;;;;;;;1.95;0.90;;;25.00;48.10;;;;;;5017918;28;20201;-61
2022/05/17 06:45:15;;;;;;;1.35;0.88;;;25.10;48.10;;;;;;5017892;28;20040;-59
2022/05/17 06:47:41;;;;;;;1.35;0.80;;;25.10;48.10;;;;;;5019217;28;20040;-62
2022/05/17 06:50:07;;;;;;;1.58;1.00;;;25.10;48.20;;;;;;5014846;28;20109;-63
2022/05/17 06:52:33;;;;;;;1.67;1.00;;;25.10;48.20;;;;;;5020199;28;20037;-63
2022/05/17 06:54:58;;;;;;;1.52;0.98;;;25.10;48.10;;;;;;5018656;28;20029;-62
2022/05/17 06:57:24;;;;;;;2.47;0.90;;;25.10;48.10;;;;;;5019067;28;20044;-61
2022/05/17 06:59:50;;;;;;;1.63;1.00;;;25.10;48.00;;;;;;5020569;28;20037;-61
2022/05/17 07:02:16;;;;;;;1.58;0.93;;;25.20;48.10;;;;;;5019476;28;20385;-62
2022/05/17 07:04:42;;;;;;;1.10;0.80;;;25.20;48.10;;;;;;5018128;28;20062;-62
2022/05/17 07:07:08;;;;;;;1.30;1.00;;;25.20;48.20;;;;;;5020759;28;20026;-63
2022/05/17 07:09:35;;;;;;;1.90;1.10;;;25.20;48.10;;;;;;5018616;28;20126;-62
2022/05/17 07:14:46;;;;;;;1.60;1.00;;;25.20;48.10;;;;;;5021249;28;20044;-62
2022/05/17 07:17:15;;;;;;;1.75;1.00;;;25.30;48.10;;;;;;5020572;28;20029;-62
2022/05/17 07:19:41;;;;;;;1.88;1.10;;;25.30;48.10;;;;;;5021701;28;20021;-62
2022/05/17 07:22:07;;;;;;;1.30;1.05;;;25.30;48.10;;;;;;5020479;28;20064;-63
2022/05/17 07:24:33;;;;;;;1.80;0.85;;;25.30;48.10;;;;;;5018357;28;20049;-63
2022/05/17 07:27:00;;;;;;;1.95;1.10;;;25.30;48.10;;;;;;5018239;28;20033;-61
2022/05/17 07:29:27;;;;;;;1.83;1.15;;;25.30;48.10;;;;;;5019014;28;20040;-62
2022/05/17 07:31:53;;;;;;;1.83;1.10;;;25.40;48.10;;;;;;5018168;28;20045;-62
2022/05/17 07:34:18;;;;;;;1.88;1.10;;;25.40;48.00;;;;;;5019166;28;20395;-62
2022/05/17 07:36:44;;;;;;;1.13;1.00;;;25.40;48.10;;;;;;5020693;28;20036;-63
2022/05/17 07:39:10;;;;;;;2.00;1.00;;;25.40;48.10;;;;;;5018457;28;20021;-62
2022/05/17 07:41:36;;;;;;;1.42;1.00;;;25.40;48.00;;;;;;5022876;28;20466;-62
2022/05/17 07:44:03;;;;;;;1.33;0.90;;;25.40;48.00;;;;;;5019315;28;20048;-63
2022/05/17 07:46:29;;;;;;;1.98;0.95;;;25.40;48.00;;;;;;5020108;28;20421;-62
2022/05/17 07:48:55;;;;;;;1.73;1.00;;;25.40;48.00;;;;;;5016441;28;20036;-63
2022/05/17 07:51:21;;;;;;;2.22;1.00;;;25.50;48.00;;;;;;5018031;28;20086;-63
2022/05/17 07:53:46;;;;;;;1.90;1.02;;;25.50;48.00;;;;;;5018757;28;20040;-63
2022/05/17 07:56:13;;;;;;;1.67;1.00;;;25.50;47.90;;;;;;5019225;28;20029;-63
2022/05/17 07:58:39;;;;;;;1.83;1.00;;;25.50;47.90;;;;;;5018063;28;20045;-62
2022/05/17 08:01:04;;;;;;;2.05;1.00;;;25.50;47.90;;;;;;5018295;28;20382;-63
2022/05/17 08:03:31;;;;;;;1.45;0.90;;;25.50;48.40;;;;;;5018552;28;20029;-63
2022/05/17 08:05:57;;;;;;;1.52;1.08;;;25.50;47.80;;;;;;5017389;28;20095;-59
2022/05/17 08:08:23;;;;;;;1.75;0.93;;;25.50;47.80;;;;;;5017829;28;20029;-60
2022/05/17 08:10:49;;;;;;;1.27;1.08;;;25.50;47.80;;;;;;5019970;28;20052;-60
2022/05/17 08:13:16;;;;;;;1.70;1.10;;;25.50;47.80;;;;;;5021880;28;20044;-61
2022/05/17 08:15:42;;;;;;;1.92;0.90;;;25.60;48.30;;;;;;5020230;28;20040;-61
2022/05/17 08:18:08;;;;;;;1.60;0.95;;;25.50;47.70;;;;;;5019737;28;20056;-58
2022/05/17 08:20:34;;;;;;;1.98;1.10;;;25.60;47.80;;;;;;5016635;28;20116;-59
2022/05/17 08:23:01;;;;;;;1.00;0.82;;;25.60;47.80;;;;;;5019671;28;20021;-61
2022/05/17 08:28:11;;;;;;;1.67;0.98;;;25.60;47.70;;;;;;5018054;28;20099;-63
2022/05/17 08:30:38;;;;;;;1.42;0.93;;;25.60;47.70;;;;;;5018135;28;20150;-63
2022/05/17 08:33:16;;;;;;;2.00;1.13;;;25.60;47.60;;;;;;5018468;28;20102;-60
2022/05/17 08:35:55;;;;;;;1.77;1.10;;;25.60;47.60;;;;;;5016823;28;20237;-60
2022/05/17 08:38:39;;;;;;;1.67;1.10;;;25.60;47.60;;;;;;5018755;28;20036;-59
2022/05/17 08:41:13;;;;;;;2.13;1.30;;;25.60;47.50;;;;;;5017938;28;20596;-63
2022/05/17 08:44:00;;;;;;;1.60;1.10;;;25.60;47.50;;;;;;5018247;28;20497;-61
2022/05/17 08:46:57;;;;;;;1.63;1.05;;;25.70;47.60;;;;;;5018260;28;20168;-62
2022/05/17 08:49:40;;;;;;;1.70;0.90;;;25.70;47.50;;;;;;5016002;28;20060;-63
2022/05/17 08:52:13;;;;;;;1.20;1.05;;;25.70;47.50;;;;;;5017676;28;20531;-62
2022/05/17 08:54:41;;;;;;;1.73;1.10;;;25.70;48.00;;;;;;5018528;28;20061;-63
2022/05/17 08:57:24;;;;;;;1.35;0.80;;;25.70;47.50;;;;;;5017752;28;20411;-62
2022/05/17 08:59:49;;;;;;;2.03;1.13;;;25.70;47.40;;;;;;5016239;28;20575;-62
2022/05/17 09:02:33;;;;;;;2.13;1.20;;;25.70;47.40;;;;;;5017574;28;20209;-59
2022/05/17 09:05:43;;;;;;;1.85;1.20;;;25.70;47.50;;;;;;5016715;28;20519;-63
2022/05/17 09:08:21;;;;;;;1.92;1.20;;;25.70;47.50;;;;;;4974380;28;20041;-60
2022/05/17 09:11:01;;;;;;;1.50;1.00;;;25.80;47.50;;;;;;5017206;28;20036;-63
2022/05/17 09:13:49;;;;;;;1.20;1.00;;;25.80;47.50;;;;;;5019538;28;20512;-61
2022/05/17 09:16:15;;;;;;;1.40;0.98;;;25.80;47.50;;;;;;5017316;28;20085;-62
2022/05/17 09:18:45;;;;;;;1.80;1.10;;;25.80;47.50;;;;;;5016491;28;20034;-63
2022/05/17 09:21:33;;;;;;;1.85;1.10;;;25.80;47.50;;;;;;5016504;28;20021;-63
2022/05/17 09:24:04;;;;;;;2.42;1.10;;;25.80;47.50;;;;;;5023920;28;20033;-62
2022/05/17 09:26:31;;;;;;;1.17;1.00;;;25.80;47.40;;;;;;5018055;28;20045;-63
2022/05/17 09:29:11;;;;;;;2.17;1.00;;;25.90;47.50;;;;;;5020262;28;20017;-62
2022/05/17 09:31:37;;;;;;;1.92;1.00;;;25.90;47.50;;;;;;5017313;28;20037;-62
2022/05/17 09:34:06;;;;;;;2.20;1.00;;;25.90;47.50;;;;;;5023079;28;20037;-63
2022/05/17 09:36:48;;;;;;;2.17;1.20;;;25.90;47.50;;;;;;5017774;28;20648;-61
2022/05/17 09:39:22;;;;;;;1.30;0.90;;;25.90;47.50;;;;;;5019146;28;20508;-63
2022/05/17 09:41:49;;;;;;;1.95;1.05;;;25.90;47.40;;;;;;5018098;28;20970;-63
2022/05/17 09:44:21;;;;;;;1.33;1.00;;;25.90;47.50;;;;;;5018475;28;20033;-61
2022/05/17 09:46:56;;;;;;;1.77;0.98;;;26.00;47.50;;;;;;5020127;28;20033;-60
2022/05/17 09:52:46;;;;;;;1.75;1.10;;;25.90;47.40;;;;;;5018869;28;20040;-62
2022/05/17 09:55:21;;;;;;;1.48;1.00;;;26.00;47.40;;;;;;4998021;28;20118;-59
2022/05/17 09:58:02;;;;;;;1.80;1.00;;;26.00;47.40;;;;;;5017919;28;20457;-60
2022/05/17 10:00:30;;;;;;;1.38;0.95;;;26.00;47.30;;;;;;5017115;28;20346;-60
2022/05/17 10:03:04;;;;;;;1.92;1.10;;;26.00;47.30;;;;;;5018868;28;20103;-61
2022/05/17 10:05:45;;;;;;;1.58;1.00;;;26.00;47.30;;;;;;5016266;28;20154;-61
2022/05/17 10:08:14;;;;;;;1.38;0.90;;;26.00;47.30;;;;;;5015629;28;20106;-61
2022/05/17 10:10:45;;;;;;;2.60;1.10;;;26.10;47.30;;;;;;5017234;28;20728;-61
2022/05/17 10:13:32;;;;;;;1.25;0.90;;;26.10;47.30;;;;;;5019815;28;20492;-60
2022/05/17 10:16:09;;;;;;;1.42;1.10;;;26.10;47.40;;;;;;5016370;28;20112;-61
2022/05/17 10:18:44;;;;;;;1.52;1.20;;;26.10;47.30;;;;;;5015716;28;20119;-61
2022/05/17 10:21:24;;;;;;;1.75;1.00;;;26.10;47.40;;;;;;5016751;28;20021;-61
2022/05/17 10:24:24;;;;;;;1.55;0.93;;;26.10;47.30;;;;;;5016142;28;20079;-63
2022/05/17 10:27:07;;;;;;;2.00;1.13;;;26.10;47.40;;;;;;4993435;28;20042;-61
2022/05/17 10:29:33;;;;;;;1.83;1.00;;;26.10;47.40;;;;;;5018524;28;20055;-61
2022/05/17 10:32:01;;;;;;;2.08;1.15;;;26.10;47.40;;;;;;5019166;28;20052;-61
2022/05/17 10:34:56;;;;;;;1.73;0.98;;;26.10;47.40;;;;;;5020849;28;20064;-59
2022/05/17 10:37:29;;;;;;;1.23;1.00;;;26.10;47.40;;;;;;5021967;28;20116;-59
2022/05/17 10:40:01;;;;;;;1.77;1.08;;;26.10;47.30;;;;;;5019440;28;20038;-60
2022/05/17 10:42:28;;;;;;;1.33;0.95;;;26.10;47.30;;;;;;5022487;28;20064;-61
2022/05/17 10:44:56;;;;;;;1.45;0.90;;;26.10;47.40;;;;;;5021509;28;20099;-60
2022/05/17 10:47:37;;;;;;;1.80;1.10;;;26.10;47.40;;;;;;5021736;28;20083;-60
2022/05/17 10:50:04;;;;;;;1.20;0.90;;;26.20;47.40;;;;;;5023022;28;20120;-62
2022/05/17 10:52:52;;;;;;;1.15;0.90;;;26.20;47.50;;;;;;5027893;28;20041;-61
2022/05/17 10:55:31;;;;;;;1.63;0.90;;;26.20;47.60;;;;;;5035736;28;20055;-61
2022/05/17 10:58:22;;;;;;;1.40;1.00;;;26.20;47.50;;;;;;5035382;28;20135;-60
2022/05/17 11:00:58;;;;;;;1.30;0.90;;;26.20;47.40;;;;;;5030780;28;20041;-61
2022/05/17 11:04:01;;;;;;;1.35;0.95;;;26.20;47.40;;;;;;5036627;28;20051;-61
2022/05/17 11:06:50;;;;;;;1.75;0.98;;;26.20;47.30;;;;;;5027043;28;20031;-60
2022/05/17 11:09:24;;;;;;;1.55;1.10;;;26.20;47.30;;;;;;5018910;28;20543;-63
2022/05/17 11:12:00;;;;;;;1.90;1.15;;;26.20;47.30;;;;;;5029076;28;20346;-62
2022/05/17 11:14:47;;;;;;;1.70;0.90;;;26.20;47.30;;;;;;5031656;28;20025;-61
2022/05/17 11:17:50;;;;;;;0.95;0.80;;;26.30;47.40;;;;;;5031110;28;20021;-59
2022/05/17 11:20:29;;;;;;;1.20;0.90;;;26.30;47.30;;;;;;5031478;28;20044;-61
2022/05/17 11:23:28;;;;;;;1.80;1.00;;;26.30;47.40;;;;;;5034409;28;20396;-59
2022/05/17 11:26:05;;;;;;;1.30;0.93;;;26.30;47.30;;;;;;5027508;28;20036;-61
2022/05/17 11:28:40;;;;;;;1.23;1.02;;;26.30;47.30;;;;;;5020731;28;20033;-61
2022/05/17 11:31:20;;;;;;;1.23;0.90;;;26.30;47.40;;;;;;5021542;28;20025;-61
2022/05/17 11:33:45;;;;;;;1.23;0.93;;;26.30;47.30;;;;;;5024312;28;20029;-60
2022/05/17 11:36:30;;;;;;;1.50;1.00;;;26.30;47.30;;;;;;5034279;28;20489;-61
2022/05/17 11:38:56;;;;;;;1.20;0.98;;;26.30;47.30;;;;;;5038463;28;20040;-60
2022/05/17 11:41:41;;;;;;;2.35;1.10;;;26.40;47.30;;;;;;5021686;28;20222;-61
2022/05/17 11:44:10;;;;;;;1.52;1.00;;;26.40;47.30;;;;;;5034050;28;20438;-61
2022/05/17 11:46:41;;;;;;;;;;;26.30;47.30;;;;;;5029331;28;20087;-61
2022/05/17 11:49:07;;;;;;;1.15;0.90;;;26.40;47.30;;;;;;5036175;28;19932;-62
2022/05/17 11:51:36;;;;;;;1.92;1.10;;;26.40;47.30;;;;;;5035619;28;20120;-61
2022/05/17 11:54:03;;;;;;;;;;;26.40;47.30;;;;;;5030071;28;20079;-61
2022/05/17 11:56:32;;;;;;;1.30;1.00;;;26.40;47.30;;;;;;5035000;28;19913;-61
2022/05/17 11:58:58;;;;;;;1.03;0.80;;;26.40;47.30;;;;;;5038951;28;20029;-61
2022/05/17 12:01:30;;;;;;;1.83;1.08;;;26.50;47.30;;;;;;5020980;28;20030;-62
2022/05/17 12:04:22;;;;;;;1.52;0.90;;;26.50;47.50;;;;;;5018414;28;20029;-61
2022/05/17 12:06:53;;;;;;;1.58;0.90;;;26.40;47.50;;;;;;5021466;28;20501;-61
2022/05/17 12:09:26;;;;;;;1.90;1.10;;;26.50;47.40;;;;;;5023541;28;20231;-62
2022/05/17 12:12:10;;;;;;;1.00;0.88;;;26.50;47.30;;;;;;5027927;28;20099;-64
2022/05/17 12:14:45;;;;;;;1.15;0.90;;;26.50;47.40;;;;;;5017826;28;20040;-61
2022/05/17 12:17:20;;;;;;;1.55;0.90;;;26.50;47.50;;;;;;5035955;28;20037;-64
2022/05/17 12:19:55;;;;;;;1.20;0.93;;;26.50;47.50;;;;;;5015845;28;20021;-64
2022/05/17 12:22:50;;;;;;;1.40;1.00;;;26.50;47.40;;;;;;5037166;28;20107;-63
2022/05/17 12:25:33;;;;;;;1.33;0.90;;;26.60;47.40;;;;;;5029809;28;20036;-62
2022/05/17 12:28:00;;;;;;;1.23;0.90;;;26.60;47.30;;;;;;5030493;28;20037;-65
2022/05/17 12:33:17;;;;;;;;;;;26.60;47.30;;;;;;5034033;28;20487;-64
2022/05/17 12:35:42;;;;;;;1.60;0.90;;;26.60;47.30;;;;;;5027858;28;19913;-64
2022/05/17 12:43:44;;;;;;;1.10;0.90;;;26.60;47.80;;;;;;5029598;28;20032;-64
2022/05/17 12:46:30;;;;;;;0.90;0.75;;;26.70;47.30;;;;;;5020807;28;20120;-60
2022/05/17 12:48:56;;;;;;;1.88;1.00;;;26.60;47.40;;;;;;5028332;28;20504;-63
2022/05/17 12:51:24;;;;;;;1.17;0.90;;;26.70;47.50;;;;;;5017734;28;20040;-64
2022/05/17 12:53:53;;;;;;;1.77;1.10;;;26.60;47.50;;;;;;5019309;28;20059;-64
2022/05/17 12:56:24;;;;;;;2.05;0.90;;;26.70;47.40;;;;;;5018674;28;20033;-64
2022/05/17 12:58:56;;;;;;;1.13;0.82;;;26.70;47.40;;;;;;5020946;28;20081;-63
2022/05/17 13:01:25;;;;;;;0.90;0.70;;;26.70;47.50;;;;;;5017162;28;20106;-64
2022/05/17 13:03:55;;;;;;;0.90;0.70;;;26.70;47.70;;;;;;5019810;28;20025;-64
2022/05/17 13:06:20;;;;;;;;;;;26.70;47.70;;;;;;5020743;28;20051;-64
2022/05/17 13:08:47;;;;;;;1.38;1.00;;;26.70;47.60;;;;;;5018070;28;19909;-61
2022/05/17 13:11:23;;;;;;;1.33;0.90;;;26.80;47.50;;;;;;5020110;28;20033;-65
2022/05/17 13:13:52;;;;;;;2.08;1.08;;;26.70;47.40;;;;;;5017299;28;20033;-64
2022/05/17 13:16:25;;;;;;;1.02;0.90;;;26.80;47.40;;;;;;5018019;28;20045;-64
2022/05/17 13:18:55;;;;;;;1.40;1.00;;;26.80;47.30;;;;;;5017719;28;20026;-65
2022/05/17 13:21:37;;;;;;;0.90;0.80;;;26.80;47.30;;;;;;5017987;28;20109;-61